Parma — V2OZ9 — position and weather

sailwx.info

Track history (hours):
 
Tides and Currents Weather Stations Pressure Air Temp Water Temp Dewpoint Dewpoint Depression Visibility Wind Speed Wind Dir Waves Ship Positions

Parma

Last reported at 2014-Dec-20 15:12 UTC. Time now 2014-Dec-21 15:49 UTC.
Position N 36°00' W 005°28'.

MMSI: 279073176.

Date/timePositionNaut miles runAvg speedWind from/ knotsBaromVisibWave heightAir tempDewpointWater temp
2014-Dec-20 15:12N 36°00' W 005°28'5 8.0
2014-Dec-20 14:33N 36°01' W 005°21'8 8.3
2014-Dec-20 13:33N 36°02' W 005°11'21410.1
2014-Dec-19 16:23N 37°15' W 001°01'2411.3
2014-Dec-19 14:17N 37°31' W 000°38'1011.0
2014-Dec-19 13:22N 37°39' W 000°30'2410.7
2014-Dec-19 11:08N 37°59' W 000°14'12810.9
2014-Dec-18 23:20N 39°41' E 001°25'810.9
2014-Dec-18 22:33N 39°47' E 001°33'1110.6
2014-Dec-18 21:33N 39°55' E 001°43'1110.8
2014-Dec-18 20:34N 40°02' E 001°53'1010.3
2014-Dec-18 19:33N 40°10' E 002°02'1010.5
2014-Dec-18 18:34N 40°17' E 002°12'1110.5
2014-Dec-18 17:33N 40°25' E 002°21'1110.7
2014-Dec-18 16:33N 40°32' E 002°31'1110.8
2014-Dec-18 15:33N 40°40' E 002°41'1110.5
2014-Dec-18 14:33N 40°47' E 002°51'1110.9
2014-Dec-18 13:33N 40°54' E 003°02'1110.6
2014-Dec-18 12:33N 41°01' E 003°12'1210.7
2014-Dec-18 11:25N 41°10' E 003°24'1011.1
2014-Dec-18 10:31N 41°17' E 003°34'1010.1
2014-Dec-18 09:33N 41°24' E 003°43'1110.6
2014-Dec-18 08:32N 41°32' E 003°52'1310.6
2014-Dec-18 07:18N 41°43' E 004°01'810.9
2014-Dec-18 06:33N 41°51' E 004°01'1111.0
2014-Dec-18 05:33N 42°02' E 004°02'1110.8
2014-Dec-18 04:33N 42°13' E 004°02'1111.0
2014-Dec-18 03:34N 42°24' E 004°02'1110.9
2014-Dec-18 02:34N 42°35' E 004°02'5 5.2
2014-Dec-18 01:34N 42°38' E 004°07'5 5.4
2014-Dec-18 00:34N 42°41' E 004°14'5 5.5
2014-Dec-17 23:33N 42°44' E 004°20'8 6.4
2014-Dec-17 22:21N 42°50' E 004°27'9 8.0
2014-Dec-17 21:17N 42°57' E 004°34'2010.4
2014-Dec-17 19:21N 43°12' E 004°51'910.8
2014-Dec-17 18:33N 43°20' E 004°57'6 5.3
2014-Dec-17 17:26N 43°24' E 004°51'0 0.0
2014-Dec-17 16:32N 43°24' E 004°51'0 0.0
2014-Dec-17 15:29N 43°24' E 004°51'0 0.0
2014-Dec-17 14:29N 43°24' E 004°51'0 0.0
2014-Dec-17 13:32N 43°24' E 004°51'0 0.0
2014-Dec-17 12:32N 43°24' E 004°51'0 0.0
2014-Dec-17 11:17N 43°24' E 004°51'0 0.0
2014-Dec-17 10:32N 43°24' E 004°51'0 0.0
2014-Dec-17 09:29N 43°24' E 004°51'0 0.0
2014-Dec-17 08:32N 43°24' E 004°51'0 0.0
2014-Dec-17 07:29N 43°24' E 004°51'0 0.0
2014-Dec-17 06:29N 43°24' E 004°51'0 0.0
2014-Dec-17 05:32N 43°24' E 004°51'0 0.0
2014-Dec-17 04:29N 43°24' E 004°51'0 0.0
2014-Dec-17 03:32N 43°24' E 004°51'0 0.0
2014-Dec-17 02:29N 43°24' E 004°51'0 0.0
2014-Dec-17 01:32N 43°24' E 004°51'0 0.0
2014-Dec-17 00:32N 43°24' E 004°51'0 0.0
2014-Dec-16 23:29N 43°24' E 004°51'0 0.0
2014-Dec-16 22:32N 43°24' E 004°51'0 0.0
2014-Dec-16 21:32N 43°24' E 004°51'0 0.0
2014-Dec-16 20:32N 43°24' E 004°51'0 0.0
2014-Dec-16 19:32N 43°24' E 004°51'0 0.0
2014-Dec-16 18:32N 43°24' E 004°51'0 0.0
2014-Dec-16 17:32N 43°24' E 004°51'0 0.0
2014-Dec-16 16:29N 43°24' E 004°51'0 0.0
2014-Dec-16 15:32N 43°24' E 004°51'0 0.0
2014-Dec-16 14:29N 43°24' E 004°51'0 0.0
2014-Dec-16 13:32N 43°24' E 004°51'0 0.0
2014-Dec-16 12:32N 43°24' E 004°51'0 0.0
2014-Dec-16 11:29N 43°24' E 004°51'0 0.0
2014-Dec-16 10:29N 43°24' E 004°51'0 0.0
2014-Dec-16 09:29N 43°24' E 004°51'0 0.0
2014-Dec-16 08:29N 43°24' E 004°51'0 0.0
2014-Dec-16 07:29N 43°24' E 004°51'0 0.0
2014-Dec-16 06:29N 43°24' E 004°51'0 0.0
2014-Dec-16 04:33N 43°24' E 004°51'0 0.0
2014-Dec-16 03:30N 43°24' E 004°51'0 0.0
2014-Dec-16 02:25N 43°24' E 004°51'0 0.0
2014-Dec-15 23:29N 43°24' E 004°51'0 0.0
2014-Dec-15 22:26N 43°24' E 004°51'0 0.0
2014-Dec-15 21:29N 43°24' E 004°51'0 0.0
2014-Dec-15 20:29N 43°24' E 004°51'0 0.0
2014-Dec-15 19:32N 43°24' E 004°51'0 0.0
2014-Dec-15 18:29N 43°24' E 004°51'0 0.0
2014-Dec-15 17:32N 43°24' E 004°51'0 0.0
2014-Dec-15 16:32N 43°24' E 004°51'0 0.0
2014-Dec-15 15:23N 43°24' E 004°51'0 0.0
2014-Dec-15 14:32N 43°24' E 004°51'0 0.0
2014-Dec-15 13:29N 43°24' E 004°51'0 0.0
2014-Dec-15 12:29N 43°24' E 004°51'0 0.0
2014-Dec-15 11:32N 43°24' E 004°51'0 0.0
2014-Dec-15 10:32N 43°24' E 004°51'0 0.0
2014-Dec-15 09:29N 43°24' E 004°51'0 0.0
2014-Dec-15 08:32N 43°24' E 004°51'0 0.0
2014-Dec-15 07:29N 43°24' E 004°51'0 0.0
2014-Dec-15 06:29N 43°24' E 004°51'0 0.0
2014-Dec-15 05:32N 43°24' E 004°51'0 0.0
2014-Dec-15 04:23N 43°24' E 004°51'0 0.0
2014-Dec-15 03:23N 43°24' E 004°51'0 0.0
2014-Dec-15 02:32N 43°24' E 004°51'0 0.0
2014-Dec-15 01:29N 43°24' E 004°51'0 0.0
2014-Dec-15 00:32N 43°24' E 004°51'0 0.0
2014-Dec-14 23:29N 43°24' E 004°51'0 0.0
2014-Dec-14 22:29N 43°24' E 004°51'0 0.0
2014-Dec-14 21:29N 43°24' E 004°51'0 0.0
2014-Dec-14 20:32N 43°24' E 004°51'0 0.0
2014-Dec-14 19:32N 43°24' E 004°51'0 0.0
2014-Dec-14 18:29N 43°24' E 004°51'0 0.0
2014-Dec-14 17:32N 43°24' E 004°51'0 0.0
2014-Dec-14 16:29N 43°24' E 004°51'0 0.0
2014-Dec-14 15:29N 43°24' E 004°51'0 0.0
2014-Dec-14 14:32N 43°24' E 004°51'0 0.0
2014-Dec-14 13:32N 43°24' E 004°51'0 0.0
2014-Dec-14 12:32N 43°24' E 004°51'0 0.0
2014-Dec-14 11:29N 43°24' E 004°51'0 0.0
2014-Dec-14 10:29N 43°24' E 004°51'0 0.0
2014-Dec-14 09:32N 43°24' E 004°51'0 0.0
2014-Dec-14 08:32N 43°24' E 004°51'0 0.5
2014-Dec-14 07:33N 43°24' E 004°51'7 7.2
2014-Dec-14 06:33N 43°19' E 004°59'48 9.1
2014-Dec-14 01:18N 42°51' E 005°52'  
2014-Dec-11 16:32N 38°14' E 015°37'10 9.6
2014-Dec-11 15:31N 38°04' E 015°36'9 9.4
2014-Dec-11 14:31N 37°55' E 015°39'  
Track history (hours):
 
Tides and Currents Weather Stations Pressure Air Temp Water Temp Dewpoint Dewpoint Depression Visibility Wind Speed Wind Dir Waves Ship Positions

Parma

Last reported at 2014-Dec-20 15:12 UTC. Time now 2014-Dec-21 15:49 UTC.
Position N 36°00' W 005°28'.

MMSI: 279073176.

Date/timePositionNaut miles runAvg speedWind from/ knotsBaromVisibWave heightAir tempDewpointWater temp
2014-Dec-20 15:12N 36°00' W 005°28'5 8.0
2014-Dec-20 14:33N 36°01' W 005°21'8 8.3
2014-Dec-20 13:33N 36°02' W 005°11'21410.1
2014-Dec-19 16:23N 37°15' W 001°01'2411.3
2014-Dec-19 14:17N 37°31' W 000°38'1011.0
2014-Dec-19 13:22N 37°39' W 000°30'2410.7
2014-Dec-19 11:08N 37°59' W 000°14'12810.9
2014-Dec-18 23:20N 39°41' E 001°25'810.9
2014-Dec-18 22:33N 39°47' E 001°33'1110.6
2014-Dec-18 21:33N 39°55' E 001°43'1110.8
2014-Dec-18 20:34N 40°02' E 001°53'1010.3
2014-Dec-18 19:33N 40°10' E 002°02'1010.5
2014-Dec-18 18:34N 40°17' E 002°12'1110.5
2014-Dec-18 17:33N 40°25' E 002°21'1110.7
2014-Dec-18 16:33N 40°32' E 002°31'1110.8
2014-Dec-18 15:33N 40°40' E 002°41'1110.5
2014-Dec-18 14:33N 40°47' E 002°51'1110.9
2014-Dec-18 13:33N 40°54' E 003°02'1110.6
2014-Dec-18 12:33N 41°01' E 003°12'1210.7
2014-Dec-18 11:25N 41°10' E 003°24'1011.1
2014-Dec-18 10:31N 41°17' E 003°34'1010.1
2014-Dec-18 09:33N 41°24' E 003°43'1110.6
2014-Dec-18 08:32N 41°32' E 003°52'1310.6
2014-Dec-18 07:18N 41°43' E 004°01'810.9
2014-Dec-18 06:33N 41°51' E 004°01'1111.0
2014-Dec-18 05:33N 42°02' E 004°02'1110.8
2014-Dec-18 04:33N 42°13' E 004°02'1111.0
2014-Dec-18 03:34N 42°24' E 004°02'1110.9
2014-Dec-18 02:34N 42°35' E 004°02'5 5.2
2014-Dec-18 01:34N 42°38' E 004°07'5 5.4
2014-Dec-18 00:34N 42°41' E 004°14'5 5.5
2014-Dec-17 23:33N 42°44' E 004°20'8 6.4
2014-Dec-17 22:21N 42°50' E 004°27'9 8.0
2014-Dec-17 21:17N 42°57' E 004°34'2010.4
2014-Dec-17 19:21N 43°12' E 004°51'910.8
2014-Dec-17 18:33N 43°20' E 004°57'6 5.3
2014-Dec-17 17:26N 43°24' E 004°51'0 0.0
2014-Dec-17 16:32N 43°24' E 004°51'0 0.0
2014-Dec-17 15:29N 43°24' E 004°51'0 0.0
2014-Dec-17 14:29N 43°24' E 004°51'0 0.0
2014-Dec-17 13:32N 43°24' E 004°51'0 0.0
2014-Dec-17 12:32N 43°24' E 004°51'0 0.0
2014-Dec-17 11:17N 43°24' E 004°51'0 0.0
2014-Dec-17 10:32N 43°24' E 004°51'0 0.0
2014-Dec-17 09:29N 43°24' E 004°51'0 0.0
2014-Dec-17 08:32N 43°24' E 004°51'0 0.0
2014-Dec-17 07:29N 43°24' E 004°51'0 0.0
2014-Dec-17 06:29N 43°24' E 004°51'0 0.0
2014-Dec-17 05:32N 43°24' E 004°51'0 0.0
2014-Dec-17 04:29N 43°24' E 004°51'0 0.0
2014-Dec-17 03:32N 43°24' E 004°51'0 0.0
2014-Dec-17 02:29N 43°24' E 004°51'0 0.0
2014-Dec-17 01:32N 43°24' E 004°51'0 0.0
2014-Dec-17 00:32N 43°24' E 004°51'0 0.0
2014-Dec-16 23:29N 43°24' E 004°51'0 0.0
2014-Dec-16 22:32N 43°24' E 004°51'0 0.0
2014-Dec-16 21:32N 43°24' E 004°51'0 0.0
2014-Dec-16 20:32N 43°24' E 004°51'0 0.0
2014-Dec-16 19:32N 43°24' E 004°51'0 0.0
2014-Dec-16 18:32N 43°24' E 004°51'0 0.0
2014-Dec-16 17:32N 43°24' E 004°51'0 0.0
2014-Dec-16 16:29N 43°24' E 004°51'0 0.0
2014-Dec-16 15:32N 43°24' E 004°51'0 0.0
2014-Dec-16 14:29N 43°24' E 004°51'0 0.0
2014-Dec-16 13:32N 43°24' E 004°51'0 0.0
2014-Dec-16 12:32N 43°24' E 004°51'0 0.0
2014-Dec-16 11:29N 43°24' E 004°51'0 0.0
2014-Dec-16 10:29N 43°24' E 004°51'0 0.0
2014-Dec-16 09:29N 43°24' E 004°51'0 0.0
2014-Dec-16 08:29N 43°24' E 004°51'0 0.0
2014-Dec-16 07:29N 43°24' E 004°51'0 0.0
2014-Dec-16 06:29N 43°24' E 004°51'0 0.0
2014-Dec-16 04:33N 43°24' E 004°51'0 0.0
2014-Dec-16 03:30N 43°24' E 004°51'0 0.0
2014-Dec-16 02:25N 43°24' E 004°51'0 0.0
2014-Dec-15 23:29N 43°24' E 004°51'0 0.0
2014-Dec-15 22:26N 43°24' E 004°51'0 0.0
2014-Dec-15 21:29N 43°24' E 004°51'0 0.0
2014-Dec-15 20:29N 43°24' E 004°51'0 0.0
2014-Dec-15 19:32N 43°24' E 004°51'0 0.0
2014-Dec-15 18:29N 43°24' E 004°51'0 0.0
2014-Dec-15 17:32N 43°24' E 004°51'0 0.0
2014-Dec-15 16:32N 43°24' E 004°51'0 0.0
2014-Dec-15 15:23N 43°24' E 004°51'0 0.0
2014-Dec-15 14:32N 43°24' E 004°51'0 0.0
2014-Dec-15 13:29N 43°24' E 004°51'0 0.0
2014-Dec-15 12:29N 43°24' E 004°51'0 0.0
2014-Dec-15 11:32N 43°24' E 004°51'0 0.0
2014-Dec-15 10:32N 43°24' E 004°51'0 0.0
2014-Dec-15 09:29N 43°24' E 004°51'0 0.0
2014-Dec-15 08:32N 43°24' E 004°51'0 0.0
2014-Dec-15 07:29N 43°24' E 004°51'0 0.0
2014-Dec-15 06:29N 43°24' E 004°51'0 0.0
2014-Dec-15 05:32N 43°24' E 004°51'0 0.0
2014-Dec-15 04:23N 43°24' E 004°51'0 0.0
2014-Dec-15 03:23N 43°24' E 004°51'0 0.0
2014-Dec-15 02:32N 43°24' E 004°51'0 0.0
2014-Dec-15 01:29N 43°24' E 004°51'0 0.0
2014-Dec-15 00:32N 43°24' E 004°51'0 0.0
2014-Dec-14 23:29N 43°24' E 004°51'0 0.0
2014-Dec-14 22:29N 43°24' E 004°51'0 0.0
2014-Dec-14 21:29N 43°24' E 004°51'0 0.0
2014-Dec-14 20:32N 43°24' E 004°51'0 0.0
2014-Dec-14 19:32N 43°24' E 004°51'0 0.0
2014-Dec-14 18:29N 43°24' E 004°51'0 0.0
2014-Dec-14 17:32N 43°24' E 004°51'0 0.0
2014-Dec-14 16:29N 43°24' E 004°51'0 0.0
2014-Dec-14 15:29N 43°24' E 004°51'0 0.0
2014-Dec-14 14:32N 43°24' E 004°51'0 0.0
2014-Dec-14 13:32N 43°24' E 004°51'0 0.0
2014-Dec-14 12:32N 43°24' E 004°51'0 0.0
2014-Dec-14 11:29N 43°24' E 004°51'0 0.0
2014-Dec-14 10:29N 43°24' E 004°51'0 0.0
2014-Dec-14 09:32N 43°24' E 004°51'0 0.0
2014-Dec-14 08:32N 43°24' E 004°51'0 0.5
2014-Dec-14 07:33N 43°24' E 004°51'7 7.2
2014-Dec-14 06:33N 43°19' E 004°59'48 9.1
2014-Dec-14 01:18N 42°51' E 005°52'  
2014-Dec-11 16:32N 38°14' E 015°37'10 9.6
2014-Dec-11 15:31N 38°04' E 015°36'9 9.4
2014-Dec-11 14:31N 37°55' E 015°39'  

Dump ship's entire track history